Cadiz, KY

7:45 PM CDT on May 22, 2017 (GMT -0500)
enchanted shores | | Change Station

Elev 404 ft 36.86 °N, 87.94 °W | Updated 6 seconds ago

Partly Cloudy
Partly Cloudy
67.8 °F
Feels Like 67.8 °F
N
0.0
Wind Variable Wind from NW

Today
High -- | Low -- °F
--% Chance of Precip.
Yesterday
High -- | Low -- °F
Precip. -- in
Pressure 29.96 in
Visibility 10.0 miles
Clouds Scattered Clouds 15000 ft
Scattered Clouds 17000 ft
Dew Point 56 °F
Humidity 68%
Rainfall 0.00 in
Snow Depth Not available.
5:38 AM 7:58 PM
Waning Crescent, 11% visible
METAR KHOP 222358Z AUTO 08005KT 10SM SCT150 SCT170 21/10 A2996 RMK AO2 SLP144 T02080096 10225 20208 57017
Pressure 29.96 in
Visibility 10.0 miles
Clouds Scattered Clouds 15000 ft
Scattered Clouds 17000 ft
Dew Point 56 °F
Humidity 68%
Rainfall 0.00 in
Snow Depth Not available.
5:38 AM 7:58 PM
Waning Crescent, 11% visible
METAR KHOP 222358Z AUTO 08005KT 10SM SCT150 SCT170 21/10 A2996 RMK AO2 SLP144 T02080096 10225 20208 57017

Get Severe Weather Alerts

Thanks for signing up!

Be on the lookout for a verification email in your inbox.

You'll start receiving the daily forecast at 6 AM.

×

10-Day Weather Forecast

Almanac

Astronomy

May. 22, 2017 Rise Set
Actual Time
Civil Twilight
Nautical Twilight
Astronomical Twilight
Moon
Length of Visible Light
Length of Day
Tomorrow will be .
, % of the Moon is Illuminated

Today's Extremes

State Highs State Lows

Community

WunderPhotos

Category 6

Welcome to Category 6. This is the collective home for Weather Underground's featured writeups by Dr. Jeff Masters (right), Bob Henson (left), Chris Burt, and other regular contributors.

Nearby

Air Quality

  Air Quality AQ Index Pollutant
Not available.

Snow Depth

Station Depth Elevation

Earthquake Activity

City Distance Mag. Time & Date
Minimum magnitude displayed is 2.5.

Coastal Water Temperatures

Place Temperature

Stations

Nearby Weather Stations

Station Location Temp. Windchill Dew Point Humidity Wind Precip. Elev Updated Type
                   

Watches & Warnings

There are currently no watches in effect.